Weather History for Dyersburg, TN

Change the Weather History Date:

Saturday, November 26, 2011

  Actual Average Record
Temperature  
Mean Temperature 63 °F -  
Max Temperature 71 °F 53 °F 71 °F (2006)
Min Temperature 55 °F 37 °F 24 °F (2014)
Degree Days  
Heating Degree Days 2    
Growing Degree Days 13 (Base 50)    
Moisture  
Dew Point 49 °F    
Average Humidity 63    
Maximum Humidity 82    
Minimum Humidity 50    
Precipitation  
Precipitation 0.54 in - - ()
Sea Level Pressure  
Sea Level Pressure 29.97 in    
Wind  
Wind Speed 9 mph (SSE)    
Max Wind Speed 17 mph    
Max Gust Speed 29 mph    
Visibility 10 miles    
Events      
Averages and records for this station are not official NWS values.
T = Trace of Precipitation, MM = Missing Value Source: NWS Daily Summary

Daily Weather History Graph

Daily Weather History Graph

Search for Another Location

Airport:

Trip Planner

Search our weather history database for the weather conditions in past years. The results will help you decide how hot, cold, wet, or windy it might be!

Date:

Astronomy

Nov. 26, 2011 Rise Set
Actual Time 6:44 AM CST 4:44 PM CST
Civil Twilight 6:16 AM CST 5:12 PM CST
Nautical Twilight 5:45 AM CST 5:44 PM CST
Astronomical Twilight 5:14 AM CST 6:14 PM CST
Moon 8:13 AM CST (11/26) 6:17 PM CST (11/26)
Length of Visible Light 10h 55m
Length of Day
9h 59m
Waxing Crescent, 3% of the Moon is Illuminated
Nov 26
Waxing Crescent
Dec 2
First Quarter
Dec 10
Full
Dec 17
Last Quarter
Dec 24
New

Hourly Weather History & Observations

Time (CST) Temp. Dew Point Humidity Pressure Visibility Wind Dir Wind Speed Gust Speed Precip Events Conditions
12:35 AM 55.4 °F 39.2 °F 54% 30.09 in 10.0 mi SSE 9.2 mph - N/A   Scattered Clouds
12:55 AM 55.4 °F 41.0 °F 58% 30.09 in 10.0 mi SSE 8.1 mph - N/A   Scattered Clouds
1:15 AM 55.4 °F 41.0 °F 58% 30.09 in 10.0 mi SSE 9.2 mph - N/A   Mostly Cloudy
1:35 AM 55.4 °F 41.0 °F 58% 30.09 in 10.0 mi SSE 9.2 mph - N/A   Overcast
1:55 AM 55.4 °F 42.8 °F 63% 30.09 in 10.0 mi SSE 9.2 mph - N/A   Overcast
2:15 AM 55.4 °F 42.8 °F 63% 30.09 in 10.0 mi SSE 8.1 mph - N/A   Mostly Cloudy
2:35 AM 55.4 °F 42.8 °F 63% 30.09 in 10.0 mi SSE 8.1 mph - N/A   Overcast
2:55 AM 57.2 °F 42.8 °F 59% 30.09 in 10.0 mi SSE 8.1 mph - N/A   Overcast
3:15 AM 57.2 °F 44.6 °F 63% 30.08 in 10.0 mi SSE 10.4 mph 16.1 mph N/A   Overcast
3:35 AM 57.2 °F 44.6 °F 63% 30.07 in 10.0 mi SSE 9.2 mph - N/A   Overcast
3:55 AM 57.2 °F 44.6 °F 63% 30.06 in 10.0 mi SSE 9.2 mph - N/A   Mostly Cloudy
4:15 AM 59.0 °F 44.6 °F 59% 30.06 in 10.0 mi SSE 9.2 mph - N/A   Mostly Cloudy
4:35 AM 57.2 °F 44.6 °F 63% 30.06 in 10.0 mi SE 6.9 mph - N/A   Overcast
4:55 AM 57.2 °F 44.6 °F 63% 30.05 in 10.0 mi SE 8.1 mph - N/A   Overcast
5:15 AM 57.2 °F 44.6 °F 63% 30.05 in 10.0 mi SE 9.2 mph - N/A   Overcast
5:35 AM 59.0 °F 44.6 °F 59% 30.05 in 10.0 mi SSE 9.2 mph - N/A   Overcast
5:55 AM 59.0 °F 44.6 °F 59% 30.05 in 10.0 mi SSE 9.2 mph - N/A   Overcast
6:15 AM 59.0 °F 44.6 °F 59% 30.06 in 10.0 mi SSE 8.1 mph 16.1 mph N/A   Overcast
6:35 AM 59.0 °F 44.6 °F 59% 30.06 in 10.0 mi South 5.8 mph - N/A   Overcast
6:55 AM 59.0 °F 44.6 °F 59% 30.06 in 10.0 mi Calm Calm - N/A   Overcast
7:15 AM 59.0 °F 44.6 °F 59% 30.06 in 10.0 mi SSE 6.9 mph - N/A   Overcast
7:35 AM 59.0 °F 44.6 °F 59% 30.06 in 10.0 mi SE 9.2 mph - N/A   Overcast
7:55 AM 59.0 °F 44.6 °F 59% 30.06 in 10.0 mi SSE 9.2 mph - N/A   Mostly Cloudy
8:15 AM 59.0 °F 46.4 °F 63% 30.05 in 10.0 mi SSE 10.4 mph 16.1 mph N/A   Overcast
8:35 AM 60.8 °F 46.4 °F 59% 30.04 in 10.0 mi SSE 9.2 mph 17.3 mph N/A   Mostly Cloudy
9:15 AM 62.6 °F 48.2 °F 59% 30.03 in 10.0 mi SSE 11.5 mph 20.7 mph N/A   Overcast
9:35 AM 62.6 °F 48.2 °F 59% 30.03 in 10.0 mi South 11.5 mph 18.4 mph N/A   Overcast
9:55 AM 62.6 °F 48.2 °F 59% 30.02 in 10.0 mi SSE 10.4 mph 21.9 mph N/A   Overcast
10:15 AM 66.2 °F 50.0 °F 56% 30.02 in 10.0 mi South 9.2 mph 17.3 mph N/A   Overcast
10:35 AM 64.4 °F 48.2 °F 56% 30.00 in 10.0 mi SSE 10.4 mph 17.3 mph N/A   Overcast
10:55 AM 66.2 °F 51.8 °F 60% 29.99 in 10.0 mi SSE 10.4 mph 17.3 mph N/A   Overcast
11:15 AM 68.0 °F 51.8 °F 56% 29.99 in 10.0 mi South 11.5 mph 20.7 mph N/A   Overcast
11:35 AM 69.8 °F 51.8 °F 53% 29.98 in 10.0 mi South 10.4 mph 24.2 mph N/A   Mostly Cloudy
12:15 PM 69.8 °F 51.8 °F 53% 29.95 in 10.0 mi South 16.1 mph 25.3 mph N/A   Overcast
12:35 PM 71.6 °F 51.8 °F 50% 29.93 in 10.0 mi South 16.1 mph 24.2 mph N/A   Overcast
12:55 PM 71.6 °F 53.6 °F 53% 29.92 in 10.0 mi South 10.4 mph 21.9 mph N/A   Mostly Cloudy
1:15 PM 71.6 °F 51.8 °F 50% 29.90 in 10.0 mi South 12.7 mph 24.2 mph N/A   Mostly Cloudy
1:55 PM 71.6 °F 51.8 °F 50% 29.90 in 10.0 mi South 10.4 mph 21.9 mph N/A   Overcast
2:15 PM 71.6 °F 51.8 °F 50% 29.89 in 10.0 mi South 9.2 mph 19.6 mph N/A   Overcast
2:55 PM 71.6 °F 53.6 °F 53% 29.88 in 10.0 mi SSE 12.7 mph 21.9 mph N/A   Overcast
3:15 PM 71.6 °F 53.6 °F 53% 29.86 in 10.0 mi SSE 16.1 mph 23.0 mph N/A   Mostly Cloudy
3:35 PM 71.6 °F 53.6 °F 53% 29.86 in 10.0 mi SSE 12.7 mph 24.2 mph N/A   Mostly Cloudy
3:55 PM 69.8 °F 53.6 °F 56% 29.87 in 10.0 mi SSE 17.3 mph 28.8 mph N/A   Overcast
4:15 PM 69.8 °F 53.6 °F 56% 29.87 in 10.0 mi SSE 10.4 mph 21.9 mph N/A   Overcast
4:35 PM 69.8 °F 53.6 °F 56% 29.87 in 10.0 mi SSE 13.8 mph 26.5 mph N/A   Overcast
4:55 PM 69.8 °F 53.6 °F 56% 29.87 in 10.0 mi South 13.8 mph 27.6 mph N/A   Overcast
5:15 PM 69.8 °F 53.6 °F 56% 29.87 in 10.0 mi South 15.0 mph 21.9 mph N/A   Overcast
5:35 PM 69.8 °F 53.6 °F 56% 29.87 in 10.0 mi South 13.8 mph 27.6 mph N/A   Overcast
5:55 PM 68.0 °F 53.6 °F 60% 29.87 in 10.0 mi South 15.0 mph 21.9 mph N/A   Mostly Cloudy
6:15 PM 68.0 °F 53.6 °F 60% 29.89 in 10.0 mi South 11.5 mph 21.9 mph N/A   Overcast
6:35 PM 60.8 °F 51.8 °F 72% 29.91 in 9.0 mi West 9.2 mph - 0.06 in   Overcast
6:55 PM 60.8 °F 51.8 °F 72% 29.91 in 10.0 mi West 3.5 mph - 0.07 in   Overcast
7:15 PM 59.0 °F 51.8 °F 77% 29.91 in 10.0 mi Calm Calm - 0.01 in   Overcast
7:35 PM 59.0 °F 51.8 °F 77% 29.91 in 10.0 mi SSW 3.5 mph - 0.01 in   Overcast
8:15 PM 57.2 °F 51.8 °F 82% 29.91 in 10.0 mi SSW 3.5 mph - 0.07 in   Overcast
8:35 PM 57.2 °F 51.8 °F 82% 29.92 in 10.0 mi South 3.5 mph - 0.09 in   Overcast
8:55 PM 57.2 °F 51.8 °F 82% 29.91 in 8.0 mi Calm Calm - 0.15 in   Overcast
9:15 PM 57.2 °F 51.8 °F 82% 29.92 in 9.0 mi South 4.6 mph - 0.07 in   Overcast
9:35 PM 57.2 °F 51.8 °F 82% 29.91 in 10.0 mi SSE 4.6 mph - 0.13 in   Overcast
10:15 PM 57.2 °F 51.8 °F 82% 29.88 in 10.0 mi SE 3.5 mph - 0.03 in   Overcast
10:35 PM 57.2 °F 51.8 °F 82% 29.88 in 10.0 mi SE 4.6 mph - 0.03 in   Overcast
10:55 PM 57.2 °F 51.8 °F 82% 29.89 in 10.0 mi South 3.5 mph - 0.06 in   Overcast
11:15 PM 57.2 °F 51.8 °F 82% 29.90 in 10.0 mi SSE 4.6 mph - 0.05 in   Overcast
11:35 PM 57.2 °F 51.8 °F 82% 29.89 in 10.0 mi South 4.6 mph - 0.08 in   Overcast
11:55 PM 57.2 °F 51.8 °F 82% 29.88 in 10.0 mi SSE 5.8 mph - 0.12 in   Overcast